Time;durP1;ratioP1;P1;durP2;ratioP2;P2;SDS_P1;SDS_P2;PMS_P1;PMS_P2;Temp;Humidity;BMP_temperature;BMP_pressure;BME280_temperature;BME280_humidity;BME280_pressure;Samples;Min_cycle;Max_cycle;Signal;HPM_P1;HPM_P2
2021/08/20 00:00:05;;;;;;;;;;;18.60;1.00;;;;;;5035791;28;19913;-64
2021/08/20 00:02:31;;;;;;;;;;;18.60;6.50;;;;;;5034757;28;19920;-65
2021/08/20 00:04:56;;;;;;;;;;;18.60;99.90;;;;;;5036249;28;19913;-65
2021/08/20 00:07:21;;;;;;;;;;;18.50;99.90;;;;;;5035776;28;19917;-65
2021/08/20 00:09:49;;;;;;;;;;;18.50;99.90;;;;;;5035586;28;19917;-65
2021/08/20 00:12:14;;;;;;;;;;;18.50;99.90;;;;;;5034459;28;19916;-67
2021/08/20 00:14:40;;;;;;;;;;;18.50;1.00;;;;;;5035681;28;19913;-67
2021/08/20 00:17:05;;;;;;;;;;;18.50;1.00;;;;;;5035815;28;20334;-65
2021/08/20 00:19:31;;;;;;;;;;;18.50;1.00;;;;;;5036511;28;19919;-65
2021/08/20 00:21:56;;;;;;;;;;;18.50;1.00;;;;;;5035338;28;19917;-65
2021/08/20 00:24:22;;;;;;;;;;;18.50;1.00;;;;;;5035647;28;19928;-64
2021/08/20 00:26:47;;;;;;;;;;;18.50;1.00;;;;;;5035612;28;19913;-64
2021/08/20 00:29:13;;;;;;;;;;;18.50;92.40;;;;;;5021325;28;20099;-64
2021/08/20 00:31:38;;;;;;;;;;;18.50;1.00;;;;;;5016207;28;20012;-65
2021/08/20 00:34:04;;;;;;;;;;;18.50;1.00;;;;;;5018718;28;20005;-65
2021/08/20 00:36:29;;;;;;;;;;;18.50;41.60;;;;;;5036029;28;19913;-66
2021/08/20 00:38:55;;;;;;;;;;;18.40;99.90;;;;;;5035501;28;19913;-65
2021/08/20 00:41:20;;;;;;;;;;;18.40;99.90;;;;;;5035399;28;19909;-65
2021/08/20 00:43:47;;;;;;;;;;;18.40;99.90;;;;;;5034681;28;19966;-65
2021/08/20 00:46:12;;;;;;;;;;;18.40;99.90;;;;;;5035066;28;19924;-65
2021/08/20 00:48:39;;;;;;;;;;;18.50;99.90;;;;;;5033602;28;19939;-65
2021/08/20 00:51:10;;;;;;;;;;;18.50;99.90;;;;;;5029119;28;20004;-65
2021/08/20 00:53:36;;;;;;;;;;;18.50;99.90;;;;;;5034777;28;20285;-65
2021/08/20 00:56:03;;;;;;;;;;;18.50;99.90;;;;;;5035287;28;19929;-65
2021/08/20 00:58:29;;;;;;;;;;;18.40;99.90;;;;;;5033689;28;19920;-65
2021/08/20 01:00:56;;;;;;;;;;;18.50;99.90;;;;;;5033154;28;19979;-65
2021/08/20 01:03:21;;;;;;;;;;;18.50;99.90;;;;;;5031671;28;19915;-65
2021/08/20 01:05:49;;;;;;;;;;;18.40;99.90;;;;;;5032183;28;20370;-65
2021/08/20 01:08:15;;;;;;;;;;;18.40;99.90;;;;;;5027967;28;19936;-65
2021/08/20 01:10:41;;;;;;;;;;;18.40;99.90;;;;;;5012488;28;19948;-66
2021/08/20 01:13:07;;;;;;;;;;;18.40;1.00;;;;;;5010745;28;19916;-66
2021/08/20 01:15:32;;;;;;;;;;;18.40;1.00;;;;;;5012382;28;20012;-66
2021/08/20 01:17:58;;;;;;;;;;;18.50;1.00;;;;;;5012272;28;19924;-66
2021/08/20 01:20:23;;;;;;;;;;;18.50;99.90;;;;;;5012092;28;19909;-66
2021/08/20 01:22:49;;;;;;;;;;;18.50;1.00;;;;;;5011239;28;19920;-66
2021/08/20 01:25:15;;;;;;;;;;;18.50;1.00;;;;;;5030838;28;20266;-66
2021/08/20 01:27:40;;;;;;;;;;;18.50;1.00;;;;;;5030249;28;20403;-66
2021/08/20 01:30:06;;;;;;;;;;;18.50;1.00;;;;;;5031896;28;19972;-66
2021/08/20 01:32:32;;;;;;;;;;;18.50;52.10;;;;;;5030904;28;19917;-66
2021/08/20 01:34:57;;;;;;;;;;;18.50;99.90;;;;;;5031615;28;20000;-66
2021/08/20 01:37:23;;;;;;;;;;;18.50;99.90;;;;;;5031617;28;19952;-66
2021/08/20 01:39:49;;;;;;;;;;;18.50;99.90;;;;;;5029887;28;19918;-66
2021/08/20 01:42:14;;;;;;;;;;;18.50;99.90;;;;;;5028807;28;20354;-66
2021/08/20 01:44:41;;;;;;;;;;;18.50;86.00;;;;;;5030394;28;19913;-66
2021/08/20 01:47:10;;;;;;;;;;;18.50;1.00;;;;;;5031284;28;20631;-66
2021/08/20 01:49:37;;;;;;;;;;;18.50;1.00;;;;;;5031213;28;19917;-66
2021/08/20 01:52:03;;;;;;;;;;;18.50;1.00;;;;;;5031079;28;19944;-66
2021/08/20 01:54:28;;;;;;;;;;;18.50;1.00;;;;;;5030837;28;19975;-66
2021/08/20 01:56:54;;;;;;;;;;;18.50;1.00;;;;;;5030713;28;19909;-66
2021/08/20 01:59:19;;;;;;;;;;;18.50;33.00;;;;;;5030424;28;20204;-66
2021/08/20 02:01:45;;;;;;;;;;;18.50;99.90;;;;;;5031008;28;19913;-66
2021/08/20 02:04:10;;;;;;;;;;;18.50;99.90;;;;;;5030697;28;19910;-66
2021/08/20 02:06:36;;;;;;;;;;;18.50;1.00;;;;;;5030744;28;19921;-66
2021/08/20 02:09:01;;;;;;;;;;;18.50;1.00;;;;;;5030987;28;19913;-66
2021/08/20 02:11:27;;;;;;;;;;;18.50;1.00;;;;;;5030749;28;20255;-66
2021/08/20 02:13:52;;;;;;;;;;;18.50;14.30;;;;;;5029613;28;20401;-66
2021/08/20 02:16:18;;;;;;;;;;;18.50;85.70;;;;;;5030811;28;20377;-66
2021/08/20 02:18:43;;;;;;;;;;;18.50;1.00;;;;;;5030468;28;19914;-66
2021/08/20 02:21:09;;;;;;;;;;;18.50;99.90;;;;;;5030802;28;19909;-66
2021/08/20 02:23:36;;;;;;;;;;;18.40;99.90;;;;;;5025751;28;19963;-66
2021/08/20 02:26:02;;;;;;;;;;;18.40;1.00;;;;;;5017262;28;20007;-66
2021/08/20 02:28:28;;;;;;;;;;;18.40;1.00;;;;;;5010274;28;19922;-66
2021/08/20 02:30:53;;;;;;;;;;;18.40;1.00;;;;;;5010683;28;20004;-66
2021/08/20 02:33:19;;;;;;;;;;;18.40;1.00;;;;;;5010547;28;19913;-66
2021/08/20 02:35:44;;;;;;;;;;;18.40;1.00;;;;;;5027822;28;20473;-66
2021/08/20 02:38:09;;;;;;;;;;;18.40;1.00;;;;;;5030520;28;20440;-66
2021/08/20 02:40:35;;;;;;;;;;;18.40;1.00;;;;;;5030697;28;19916;-66
2021/08/20 02:43:00;;;;;;;;;;;18.30;1.00;;;;;;5028860;28;19978;-66
2021/08/20 02:45:26;;;;;;;;;;;18.40;1.00;;;;;;5030377;28;19917;-66
2021/08/20 02:47:52;;;;;;;;;;;18.30;1.00;;;;;;5030319;28;19913;-66
2021/08/20 02:50:18;;;;;;;;;;;18.30;1.00;;;;;;5030393;28;19909;-66
2021/08/20 02:52:43;;;;;;;;;;;18.30;1.00;;;;;;5029622;28;20011;-66
2021/08/20 02:55:09;;;;;;;;;;;18.30;1.00;;;;;;5029586;28;20003;-66
2021/08/20 02:57:34;;;;;;;;;;;18.30;1.00;;;;;;5028015;28;20047;-66
2021/08/20 03:00:00;;;;;;;;;;;18.30;1.00;;;;;;5030163;28;20000;-66
2021/08/20 03:02:25;;;;;;;;;;;18.20;1.00;;;;;;5029544;28;19914;-66
2021/08/20 03:04:51;;;;;;;;;;;18.20;1.00;;;;;;5030000;28;20286;-66
2021/08/20 03:07:17;;;;;;;;;;;18.20;1.00;;;;;;5029615;28;19924;-66
2021/08/20 03:09:42;;;;;;;;;;;18.20;1.00;;;;;;5029877;28;19920;-66
2021/08/20 03:12:08;;;;;;;;;;;18.20;1.00;;;;;;5028877;28;19917;-66
2021/08/20 03:14:34;;;;;;;;;;;18.20;1.00;;;;;;5029234;28;20377;-66
2021/08/20 03:16:59;;;;;;;;;;;18.20;46.30;;;;;;5030069;28;19909;-66
2021/08/20 03:19:25;;;;;;;;;;;18.20;23.30;;;;;;5029515;28;19913;-66
2021/08/20 03:21:50;;;;;;;;;;;18.20;1.00;;;;;;5029401;28;20236;-66
2021/08/20 03:24:16;;;;;;;;;;;18.20;28.50;;;;;;5028672;28;19913;-66
2021/08/20 03:26:41;;;;;;;;;;;18.20;99.90;;;;;;5029212;28;19924;-66
2021/08/20 03:29:07;;;;;;;;;;;18.10;99.90;;;;;;5028390;28;20010;-66
2021/08/20 03:31:33;;;;;;;;;;;18.10;99.90;;;;;;5029665;28;19909;-66
2021/08/20 03:33:58;;;;;;;;;;;18.10;99.90;;;;;;5028778;28;20008;-66
2021/08/20 03:36:24;;;;;;;;;;;18.00;99.90;;;;;;5029543;28;20236;-66
2021/08/20 03:38:50;;;;;;;;;;;18.00;99.90;;;;;;5030021;28;20230;-66
2021/08/20 03:41:19;;;;;;;;;;;18.10;99.90;;;;;;5028827;28;19996;-66
2021/08/20 03:43:45;;;;;;;;;;;18.00;99.90;;;;;;5028372;28;20235;-66
2021/08/20 03:46:11;;;;;;;;;;;18.00;99.90;;;;;;5029821;28;20289;-66
2021/08/20 03:48:37;;;;;;;;;;;18.00;99.90;;;;;;5029522;28;19924;-66
2021/08/20 03:51:02;;;;;;;;;;;18.00;99.90;;;;;;5016451;28;19913;-66
2021/08/20 03:53:28;;;;;;;;;;;18.00;99.90;;;;;;5008518;28;19913;-66
2021/08/20 03:55:54;;;;;;;;;;;17.90;99.90;;;;;;5009562;28;20394;-66
2021/08/20 03:58:19;;;;;;;;;;;17.90;1.00;;;;;;5007512;28;19956;-66
2021/08/20 04:00:51;;;;;;;;;;;17.90;1.00;;;;;;5008239;28;20282;-66
2021/08/20 04:03:17;;;;;;;;;;;17.90;1.00;;;;;;5009223;28;20297;-66
2021/08/20 04:05:42;;;;;;;;;;;17.90;1.00;;;;;;5009520;28;20050;-66
2021/08/20 04:08:08;;;;;;;;;;;17.90;1.00;;;;;;5012260;28;20381;-66
2021/08/20 04:10:33;;;;;;;;;;;17.90;1.00;;;;;;5029231;28;19913;-66
2021/08/20 04:12:59;;;;;;;;;;;17.90;1.00;;;;;;5027738;28;20263;-66
2021/08/20 04:15:24;;;;;;;;;;;17.90;1.00;;;;;;5029393;28;19916;-66
2021/08/20 04:17:50;;;;;;;;;;;17.90;1.00;;;;;;5029027;28;20385;-66
2021/08/20 04:20:15;;;;;;;;;;;17.90;1.00;;;;;;5029332;28;19916;-66
2021/08/20 04:22:41;;;;;;;;;;;17.90;1.00;;;;;;5028367;28;19910;-66
2021/08/20 04:25:07;;;;;;;;;;;17.90;1.00;;;;;;5029147;28;19988;-66
2021/08/20 04:27:32;;;;;;;;;;;17.90;1.00;;;;;;5027932;28;20020;-66
2021/08/20 04:29:59;;;;;;;;;;;17.90;1.00;;;;;;5004430;28;19913;-66
2021/08/20 04:32:25;;;;;;;;;;;17.90;1.00;;;;;;5007922;28;19963;-66
2021/08/20 04:34:51;;;;;;;;;;;17.90;1.00;;;;;;5019032;28;19917;-66
2021/08/20 04:37:19;;;;;;;;;;;17.90;1.00;;;;;;5031232;28;19982;-66
2021/08/20 04:39:45;;;;;;;;;;;17.90;1.00;;;;;;5032135;28;19909;-66
2021/08/20 04:42:10;;;;;;;;;;;17.90;1.00;;;;;;5031545;28;20004;-66
2021/08/20 04:44:36;;;;;;;;;;;17.90;1.00;;;;;;5029156;28;19909;-66
2021/08/20 04:47:01;;;;;;;;;;;17.90;1.00;;;;;;5029856;28;19917;-66
2021/08/20 04:49:27;;;;;;;;;;;17.90;1.00;;;;;;5029392;28;19976;-66
2021/08/20 04:51:52;;;;;;;;;;;17.90;1.00;;;;;;5029045;28;19939;-66
2021/08/20 04:54:18;;;;;;;;;;;17.90;1.00;;;;;;5027752;28;19909;-65
2021/08/20 04:56:43;;;;;;;;;;;17.90;1.00;;;;;;5029671;28;20380;-66
2021/08/20 04:59:09;;;;;;;;;;;17.90;1.00;;;;;;5029331;28;19910;-66
2021/08/20 05:01:35;;;;;;;;;;;18.00;1.00;;;;;;5029320;28;19932;-66
2021/08/20 05:04:01;;;;;;;;;;;18.00;1.00;;;;;;5028327;28;20012;-66
2021/08/20 05:06:27;;;;;;;;;;;18.00;1.00;;;;;;5029501;28;19918;-66
2021/08/20 05:08:52;;;;;;;;;;;18.00;1.00;;;;;;5029377;28;19970;-65
2021/08/20 05:11:18;;;;;;;;;;;18.00;1.00;;;;;;5029205;28;20669;-67
2021/08/20 05:13:44;;;;;;;;;;;18.00;1.00;;;;;;5027017;28;19920;-65
2021/08/20 05:16:09;;;;;;;;;;;18.00;1.00;;;;;;5028829;28;19928;-65
2021/08/20 05:18:35;;;;;;;;;;;18.00;1.00;;;;;;5029445;28;19999;-65
2021/08/20 05:21:00;;;;;;;;;;;18.00;1.00;;;;;;5029440;28;20054;-65
2021/08/20 05:23:25;;;;;;;;;;;18.10;1.00;;;;;;5028562;28;19959;-65
2021/08/20 05:25:51;;;;;;;;;;;18.10;99.90;;;;;;5020433;28;20027;-65
2021/08/20 05:28:17;;;;;;;;;;;18.10;99.90;;;;;;5022420;28;19910;-65
2021/08/20 05:30:42;;;;;;;;;;;18.10;99.90;;;;;;5009512;28;20452;-65
2021/08/20 05:33:08;;;;;;;;;;;18.20;99.90;;;;;;5008827;28;20004;-65
2021/08/20 05:35:34;;;;;;;;;;;18.30;99.90;;;;;;5024910;28;20259;-65
2021/08/20 05:38:01;;;;;;;;;;;18.30;99.90;;;;;;5028789;28;19971;-65
2021/08/20 05:40:27;;;;;;;;;;;18.40;38.00;;;;;;5028308;28;19967;-65
2021/08/20 05:42:52;;;;;;;;;;;18.40;1.00;;;;;;5023675;28;19917;-65
2021/08/20 05:45:18;;;;;;;;;;;18.50;1.00;;;;;;5016953;28;19917;-65
2021/08/20 05:47:43;;;;;;;;;;;18.50;1.00;;;;;;5008556;28;19910;-65
2021/08/20 05:50:09;;;;;;;;;;;18.60;1.00;;;;;;5008691;28;19916;-65
2021/08/20 05:52:36;;;;;;;;;;;18.60;1.00;;;;;;5007313;28;19909;-66
2021/08/20 05:55:02;;;;;;;;;;;18.70;99.90;;;;;;5008804;28;19910;-66
2021/08/20 05:57:27;;;;;;;;;;;18.70;99.90;;;;;;5008182;28;20012;-66
2021/08/20 05:59:53;;;;;;;;;;;18.80;1.00;;;;;;5008266;28;19975;-66
2021/08/20 06:02:18;;;;;;;;;;;18.80;1.00;;;;;;5008215;28;20481;-66
2021/08/20 06:04:44;;;;;;;;;;;19.00;1.00;;;;;;5008465;28;19996;-66
2021/08/20 06:07:11;;;;;;;;;;;19.10;99.90;;;;;;5009038;28;19929;-66
2021/08/20 06:09:37;;;;;;;;;;;19.20;1.00;;;;;;5024099;28;20421;-66
2021/08/20 06:12:02;;;;;;;;;;;19.40;99.90;;;;;;5023182;28;19956;-66
2021/08/20 06:14:28;;;;;;;;;;;19.50;1.00;;;;;;5017061;28;19964;-66
2021/08/20 06:16:56;;;;;;;;;;;19.70;1.00;;;;;;5008045;28;19920;-69
2021/08/20 06:19:22;;;;;;;;;;;19.80;99.90;;;;;;5025447;28;20282;-68
2021/08/20 06:21:48;;;;;;;;;;;19.90;1.00;;;;;;5027700;28;19917;-68
2021/08/20 06:24:14;;;;;;;;;;;20.00;1.00;;;;;;5017590;28;19937;-67
2021/08/20 06:26:39;;;;;;;;;;;20.20;99.90;;;;;;5021436;28;20003;-67
2021/08/20 06:29:05;;;;;;;;;;;20.30;99.90;;;;;;5026993;28;19932;-67
2021/08/20 06:31:30;;;;;;;;;;;20.30;1.00;;;;;;5029987;28;19956;-67
2021/08/20 06:33:58;;;;;;;;;;;20.40;1.00;;;;;;5030322;28;19913;-68
2021/08/20 06:36:26;;;;;;;;;;;20.50;1.00;;;;;;5030459;28;19952;-65
2021/08/20 06:38:52;;;;;;;;;;;20.60;1.00;;;;;;5030693;28;19909;-67
2021/08/20 06:41:17;;;;;;;;;;;20.80;1.00;;;;;;5029927;28;20351;-67
2021/08/20 06:43:43;;;;;;;;;;;20.90;1.00;;;;;;5026643;28;20020;-65
2021/08/20 06:46:09;;;;;;;;;;;21.20;99.90;;;;;;5028178;28;19959;-65
2021/08/20 06:48:34;;;;;;;;;;;21.40;99.90;;;;;;5029338;28;19909;-65
2021/08/20 06:51:00;;;;;;;;;;;21.70;99.90;;;;;;5022959;28;19917;-65
2021/08/20 06:53:25;;;;;;;;;;;22.00;1.00;;;;;;5010588;28;19987;-66
2021/08/20 06:55:51;;;;;;;;;;;22.30;1.00;;;;;;5010635;28;20468;-67
2021/08/20 06:58:16;;;;;;;;;;;22.60;1.00;;;;;;5025694;28;20366;-66
2021/08/20 07:00:42;;;;;;;;;;;22.90;1.00;;;;;;5030256;28;19944;-66
2021/08/20 07:03:07;;;;;;;;;;;23.30;1.00;;;;;;5027266;28;20346;-66
2021/08/20 07:05:33;;;;;;;;;;;24.60;99.90;;;;;;5024953;28;20371;-66
2021/08/20 07:07:59;;;;;;;;;;;25.80;99.90;;;;;;5022040;28;20367;-66
2021/08/20 07:10:24;;;;;;;;;;;26.40;99.90;;;;;;5023903;28;19963;-66
2021/08/20 07:12:50;;;;;;;;;;;26.80;99.90;;;;;;5017346;28;20290;-66
2021/08/20 07:15:16;;;;;;;;;;;27.00;99.90;;;;;;5019089;28;19909;-66
2021/08/20 07:17:42;;;;;;;;;;;27.50;99.90;;;;;;5020315;28;19913;-66
2021/08/20 07:20:08;;;;;;;;;;;28.50;99.90;;;;;;5018172;28;19980;-67
2021/08/20 07:22:33;;;;;;;;;;;30.60;99.90;;;;;;5018659;28;19914;-67
2021/08/20 07:24:59;;;;;;;;;;;31.90;99.90;;;;;;5019185;28;20845;-67
2021/08/20 07:27:24;;;;;;;;;;;32.00;99.90;;;;;;5018010;28;19933;-67
2021/08/20 07:29:50;;;;;;;;;;;32.20;99.90;;;;;;5020803;28;20343;-67
2021/08/20 07:32:16;;;;;;;;;;;32.60;99.90;;;;;;5015767;28;19920;-67
2021/08/20 07:34:42;;;;;;;;;;;32.60;99.90;;;;;;5018434;28;19917;-67
2021/08/20 07:37:07;;;;;;;;;;;32.30;99.90;;;;;;5015469;28;20278;-67
2021/08/20 07:39:36;;;;;;;;;;;32.40;99.90;;;;;;5017895;28;20381;-66
2021/08/20 07:42:01;;;;;;;;;;;32.70;99.90;;;;;;5014386;28;19967;-67
2021/08/20 07:44:27;;;;;;;;;;;32.30;99.90;;;;;;5018617;28;19940;-67
2021/08/20 07:46:52;;;;;;;;;;;31.40;99.90;;;;;;5014668;28;20302;-66
2021/08/20 07:49:18;;;;;;;;;;;31.20;99.90;;;;;;5019326;28;19971;-67
2021/08/20 07:51:43;;;;;;;;;;;30.90;99.90;;;;;;5010970;28;19909;-67
2021/08/20 07:54:09;;;;;;;;;;;30.40;99.90;;;;;;5019545;28;20294;-66
2021/08/20 07:56:34;;;;;;;;;;;30.00;99.90;;;;;;5026776;28;19920;-66
2021/08/20 07:59:00;;;;;;;;;;;30.20;99.90;;;;;;5025401;28;19951;-66
2021/08/20 08:01:26;;;;;;;;;;;31.20;99.90;;;;;;5027483;28;19928;-67
2021/08/20 08:03:57;;;;;;;;;;;32.90;99.90;;;;;;5025966;28;20309;-66
2021/08/20 08:06:23;;;;;;;;;;;35.40;99.90;;;;;;5023285;28;19925;-66
2021/08/20 08:08:49;;;;;;;;;;;38.20;99.90;;;;;;5015924;28;19913;-66
2021/08/20 08:11:14;;;;;;;;;;;39.90;99.90;;;;;;5029438;28;20394;-67
2021/08/20 08:13:40;;;;;;;;;;;41.60;99.90;;;;;;5031968;28;19909;-66
2021/08/20 08:16:05;;;;;;;;;;;43.10;99.90;;;;;;5032500;28;19976;-66
2021/08/20 08:18:31;;;;;;;;;;;44.70;99.90;;;;;;5032274;28;20028;-67
2021/08/20 08:20:56;;;;;;;;;;;45.60;99.90;;;;;;5031419;28;19958;-67
2021/08/20 08:23:22;;;;;;;;;;;45.30;99.90;;;;;;5029870;28;20424;-67
2021/08/20 08:25:47;;;;;;;;;;;43.90;99.90;;;;;;5022885;28;19948;-65
2021/08/20 08:28:13;;;;;;;;;;;44.10;98.10;;;;;;5029667;28;20404;-67
2021/08/20 08:30:39;;;;;;;;;;;45.00;92.30;;;;;;5031363;28;20011;-66
2021/08/20 08:33:06;;;;;;;;;;;46.10;85.10;;;;;;5029552;28;20011;-67
2021/08/20 08:35:31;;;;;;;;;;;45.20;72.10;;;;;;5030433;28;20398;-66
2021/08/20 08:38:07;;;;;;;;;;;43.50;59.30;;;;;;5030904;28;19916;-65
2021/08/20 08:40:33;;;;;;;;;;;41.90;53.40;;;;;;5030553;28;19931;-65
2021/08/20 08:42:59;;;;;;;;;;;41.70;49.90;;;;;;5029216;28;19998;-67
2021/08/20 08:45:25;;;;;;;;;;;41.40;36.20;;;;;;5029187;28;21030;-66
2021/08/20 08:47:52;;;;;;;;;;;40.20;43.80;;;;;;5013094;28;19976;-66
2021/08/20 08:50:18;;;;;;;;;;;38.80;41.00;;;;;;5013134;28;20099;-66
2021/08/20 08:52:43;;;;;;;;;;;38.60;40.40;;;;;;5012358;28;20004;-66
2021/08/20 08:55:09;;;;;;;;;;;36.90;39.80;;;;;;5022175;28;20358;-66
2021/08/20 08:57:35;;;;;;;;;;;37.10;41.80;;;;;;5031359;28;19995;-66
2021/08/20 09:00:01;;;;;;;;;;;37.80;42.00;;;;;;5032144;28;20005;-66
2021/08/20 09:02:26;;;;;;;;;;;38.80;42.60;;;;;;5031638;28;19917;-67
2021/08/20 09:04:53;;;;;;;;;;;40.40;42.40;;;;;;5032294;28;19956;-66
2021/08/20 09:07:18;;;;;;;;;;;42.70;42.70;;;;;;5020763;28;19975;-66
2021/08/20 09:09:44;;;;;;;;;;;44.00;40.30;;;;;;5028212;28;19917;-66
2021/08/20 09:12:09;;;;;;;;;;;44.80;36.80;;;;;;5029513;28;19909;-66
2021/08/20 09:14:35;;;;;;;;;;;45.50;33.30;;;;;;5031444;28;20007;-66
2021/08/20 09:17:02;;;;;;;;;;;45.10;28.70;;;;;;5026252;28;19920;-66
2021/08/20 09:19:28;;;;;;;;;;;44.50;24.70;;;;;;5032060;28;19964;-66
2021/08/20 09:21:56;;;;;;;;;;;43.70;22.20;;;;;;5031018;28;19916;-66
2021/08/20 09:24:27;;;;;;;;;;;42.60;19.80;;;;;;5020657;28;19909;-66
2021/08/20 09:26:53;;;;;;;;;;;43.10;18.40;;;;;;5011690;28;19913;-66
2021/08/20 09:29:21;;;;;;;;;;;43.00;17.20;;;;;;5024211;28;19924;-66
2021/08/20 09:31:51;;;;;;;;;;;44.10;17.10;;;;;;5031471;28;19909;-66
2021/08/20 09:34:16;;;;;;;;;;;44.90;15.80;;;;;;5031622;28;19971;-66
2021/08/20 09:36:42;;;;;;;;;;;46.10;15.10;;;;;;5032095;28;20022;-67
2021/08/20 09:39:07;;;;;;;;;;;45.60;13.00;;;;;;5031671;28;20278;-67
2021/08/20 09:41:35;;;;;;;;;;;45.10;10.70;;;;;;5031145;28;19924;-67
2021/08/20 09:44:03;;;;;;;;;;;43.90;7.80;;;;;;5030452;28;19910;-67
2021/08/20 09:46:42;;;;;;;;;;;41.90;6.50;;;;;;5031648;28;20007;-67
2021/08/20 09:49:08;;;;;;;;;;;39.90;5.60;;;;;;5019628;28;20251;-66
2021/08/20 09:51:38;;;;;;;;;;;37.60;6.80;;;;;;5029526;28;19909;-66
2021/08/20 09:54:05;;;;;;;;;;;36.30;8.00;;;;;;5030889;28;19913;-66
2021/08/20 09:56:31;;;;;;;;;;;35.20;10.10;;;;;;5031660;28;19917;-66
2021/08/20 09:58:57;;;;;;;;;;;;;;;;;;5031299;28;19909;-66
2021/08/20 10:01:22;;;;;;;;;;;32.60;7.00;;;;;;5031728;28;20370;-66
2021/08/20 10:03:49;;;;;;;;;;;31.80;18.50;;;;;;5030236;28;19913;-66
2021/08/20 10:06:15;;;;;;;;;;;31.20;21.50;;;;;;5028308;28;19945;-65
2021/08/20 10:08:41;;;;;;;;;;;30.80;24.50;;;;;;5011391;28;19963;-66
2021/08/20 10:11:07;;;;;;;;;;;30.50;27.80;;;;;;5011229;28;20012;-66
2021/08/20 10:13:32;;;;;;;;;;;30.80;31.70;;;;;;5010237;28;19972;-66
2021/08/20 10:15:59;;;;;;;;;;;32.30;35.60;;;;;;5026294;28;20335;-66
2021/08/20 10:18:25;;;;;;;;;;;34.10;37.70;;;;;;5031396;28;19967;-66
2021/08/20 10:20:51;;;;;;;;;;;36.00;36.70;;;;;;5031415;28;19913;-70
2021/08/20 10:23:17;;;;;;;;;;;38.30;37.50;;;;;;5029477;28;20030;-66
2021/08/20 10:25:44;;;;;;;;;;;40.40;36.90;;;;;;5031268;28;19945;-68
2021/08/20 10:28:13;;;;;;;;;;;41.70;35.10;;;;;;5024757;28;20357;-68
2021/08/20 10:30:39;;;;;;;;;;;42.70;32.50;;;;;;5011524;28;20048;-69
2021/08/20 10:33:05;;;;;;;;;;;43.00;29.20;;;;;;5009607;28;19944;-67
2021/08/20 10:35:50;;;;;;;;;;;43.30;25.80;;;;;;5026699;28;19982;-68
2021/08/20 10:38:25;;;;;;;;;;;41.90;22.00;;;;;;5031404;28;20277;-68
2021/08/20 10:41:09;;;;;;;;;;;40.10;18.70;;;;;;5030151;28;19920;-69
2021/08/20 10:43:54;;;;;;;;;;;38.00;17.10;;;;;;5028790;28;20351;-67
2021/08/20 10:46:36;;;;;;;;;;;36.00;17.60;;;;;;5030409;28;19959;-66
2021/08/20 10:49:10;;;;;;;;;;;34.50;19.10;;;;;;5030603;28;20544;-69
2021/08/20 10:51:57;;;;;;;;;;;34.40;21.10;;;;;;5029934;28;19914;-68
2021/08/20 10:54:31;;;;;;;;;;;35.40;22.80;;;;;;5029289;28;20003;-68
2021/08/20 10:57:00;;;;;;;;;;;36.10;23.50;;;;;;5029746;28;19913;-67
2021/08/20 10:59:38;;;;;;;;;;;36.90;23.60;;;;;;5029405;28;20247;-67
2021/08/20 11:02:19;;;;;;;;;;;37.30;23.60;;;;;;5029139;28;19913;-67
2021/08/20 11:05:03;;;;;;;;;;;36.70;22.50;;;;;;5030238;28;19909;-67
2021/08/20 11:07:38;;;;;;;;;;;36.70;21.90;;;;;;5017999;28;19918;-67
2021/08/20 11:10:09;;;;;;;;;;;37.40;22.20;;;;;;5009961;28;19909;-66
2021/08/20 11:12:37;;;;;;;;;;;38.20;21.90;;;;;;5008356;28;20003;-66
2021/08/20 11:15:17;;;;;;;;;;;38.30;21.90;;;;;;5009518;28;19910;-66
2021/08/20 11:17:49;;;;;;;;;;;38.30;20.80;;;;;;5009702;28;19913;-66
2021/08/20 11:20:33;;;;;;;;;;;38.30;19.80;;;;;;5009917;28;19918;-66
2021/08/20 11:23:07;;;;;;;;;;;38.20;18.80;;;;;;5009054;28;19921;-66
2021/08/20 11:25:40;;;;;;;;;;;37.30;17.90;;;;;;5023560;28;19919;-66
2021/08/20 11:28:07;;;;;;;;;;;37.40;18.70;;;;;;5027888;28;19999;-69
2021/08/20 11:30:33;;;;;;;;;;;36.70;17.80;;;;;;5029661;28;20261;-65
2021/08/20 11:33:08;;;;;;;;;;;36.30;16.30;;;;;;5028396;28;19919;-68
2021/08/20 11:35:34;;;;;;;;;;;35.90;16.10;;;;;;5029717;28;20008;-65
2021/08/20 11:37:59;;;;;;;;;;;35.50;16.10;;;;;;5029214;28;20006;-66
2021/08/20 11:40:25;;;;;;;;;;;35.20;16.60;;;;;;5029249;28;19975;-66
2021/08/20 11:43:06;;;;;;;;;;;35.20;18.00;;;;;;5027407;28;19910;-66
2021/08/20 11:45:32;;;;;;;;;;;35.70;19.80;;;;;;5026886;28;19913;-66
2021/08/20 11:47:58;;;;;;;;;;;36.00;21.90;;;;;;5009509;28;19918;-66
2021/08/20 11:50:25;;;;;;;;;;;36.20;22.50;;;;;;5009564;28;19956;-66
2021/08/20 11:52:50;;;;;;;;;;;35.70;22.80;;;;;;5008517;28;19917;-66
2021/08/20 11:55:16;;;;;;;;;;;35.00;21.90;;;;;;5009070;28;20384;-66
2021/08/20 11:57:42;;;;;;;;;;;34.20;22.10;;;;;;5008232;28;19993;-66
2021/08/20 12:00:07;;;;;;;;;;;33.90;22.90;;;;;;5009342;28;19979;-66
2021/08/20 12:02:33;;;;;;;;;;;33.60;23.80;;;;;;5008388;28;19967;-65
2021/08/20 12:05:17;;;;;;;;;;;33.10;25.30;;;;;;5024161;28;20007;-67
2021/08/20 12:07:43;;;;;;;;;;;32.20;25.30;;;;;;5014355;28;20005;-67
2021/08/20 12:10:12;;;;;;;;;;;31.50;26.60;;;;;;5009389;28;19937;-67
2021/08/20 12:12:38;;;;;;;;;;;30.90;27.60;;;;;;5007653;28;20333;-66
2021/08/20 12:15:04;;;;;;;;;;;30.50;29.70;;;;;;5009166;28;20223;-66
2021/08/20 12:17:31;;;;;;;;;;;30.50;32.50;;;;;;5008796;28;19910;-67
2021/08/20 12:19:56;;;;;;;;;;;30.80;34.90;;;;;;5021663;28;19920;-67
2021/08/20 12:22:32;;;;;;;;;;;31.20;37.00;;;;;;5028241;28;19972;-67
2021/08/20 12:24:58;;;;;;;;;;;31.30;37.20;;;;;;5012485;28;19914;-67
2021/08/20 12:27:25;;;;;;;;;;;30.90;38.40;;;;;;5008630;28;19916;-67
2021/08/20 12:29:57;;;;;;;;;;;30.80;39.00;;;;;;5027041;28;19913;-67
2021/08/20 12:32:22;;;;;;;;;;;31.20;41.90;;;;;;5028052;28;20280;-67
2021/08/20 12:34:55;;;;;;;;;;;31.60;41.20;;;;;;5024727;28;19913;-67
2021/08/20 12:37:20;;;;;;;;;;;32.20;41.90;;;;;;5029202;28;19909;-66
2021/08/20 12:39:45;;;;;;;;;;;32.50;41.90;;;;;;5029697;28;20274;-67
2021/08/20 12:42:37;;;;;;;;;;;32.20;40.20;;;;;;5029689;28;19909;-66
2021/08/20 12:45:09;;;;;;;;;;;31.30;39.20;;;;;;5006993;28;19947;-66
2021/08/20 12:47:34;;;;;;;;;;;30.60;40.10;;;;;;5028448;28;19987;-66
2021/08/20 12:50:01;;;;;;;;;;;29.80;40.20;;;;;;5021508;28;19913;-66
2021/08/20 12:52:27;;;;;;;;;;;29.20;41.60;;;;;;5028772;28;19968;-66
2021/08/20 12:54:52;;;;;;;;;;;28.90;44.90;;;;;;5023316;28;19925;-67
2021/08/20 12:57:21;;;;;;;;;;;28.90;47.20;;;;;;5010391;28;20461;-67
2021/08/20 12:59:46;;;;;;;;;;;28.80;49.00;;;;;;5014864;28;19933;-67
2021/08/20 13:02:13;;;;;;;;;;;28.80;50.60;;;;;;5015222;28;19910;-66
2021/08/20 13:04:38;;;;;;;;;;;28.90;52.40;;;;;;5021145;28;19909;-67
2021/08/20 13:07:04;;;;;;;;;;;28.90;53.70;;;;;;5033215;28;19924;-67
2021/08/20 13:09:29;;;;;;;;;;;28.80;55.40;;;;;;5038483;28;19957;-67
2021/08/20 13:11:55;;;;;;;;;;;28.80;56.90;;;;;;5035354;28;19909;-66
2021/08/20 13:14:20;;;;;;;;;;;28.70;58.70;;;;;;5035008;28;19920;-66
2021/08/20 13:16:46;;;;;;;;;;;28.60;59.50;;;;;;5033477;28;20000;-66
2021/08/20 13:19:13;;;;;;;;;;;28.50;61.90;;;;;;5031928;28;19940;-67
2021/08/20 13:21:38;;;;;;;;;;;28.60;82.20;;;;;;5031882;28;19917;-66
2021/08/20 13:24:04;;;;;;;;;;;28.70;64.50;;;;;;5022100;28;19977;-67
2021/08/20 13:26:29;;;;;;;;;;;28.70;65.00;;;;;;5011440;28;19920;-67
2021/08/20 13:28:55;;;;;;;;;;;28.80;67.70;;;;;;5022147;28;19917;-67
2021/08/20 13:31:20;;;;;;;;;;;28.80;67.40;;;;;;5031599;28;19909;-67
2021/08/20 13:33:46;;;;;;;;;;;28.80;66.80;;;;;;5030879;28;20007;-68
2021/08/20 13:36:11;;;;;;;;;;;28.60;67.20;;;;;;5026992;28;19923;-67
2021/08/20 13:38:37;;;;;;;;;;;28.40;67.00;;;;;;5020857;28;19971;-70
2021/08/20 13:41:04;;;;;;;;;;;28.20;67.40;;;;;;5029117;28;19958;-67
2021/08/20 13:43:32;;;;;;;;;;;28.10;68.00;;;;;;5029455;28;19925;-67
2021/08/20 13:45:59;;;;;;;;;;;28.00;68.20;;;;;;5026362;28;19924;-67
2021/08/20 13:48:24;;;;;;;;;;;27.70;68.50;;;;;;5011718;28;20305;-67
2021/08/20 13:50:50;;;;;;;;;;;27.70;69.90;;;;;;5011824;28;19940;-67
2021/08/20 13:53:15;;;;;;;;;;;27.60;71.70;;;;;;5010586;28;20128;-67
2021/08/20 13:55:41;;;;;;;;;;;27.70;74.00;;;;;;5023656;28;19909;-67
2021/08/20 13:58:07;;;;;;;;;;;27.90;75.20;;;;;;5031256;28;19913;-65
2021/08/20 14:00:34;;;;;;;;;;;28.10;76.60;;;;;;5031362;28;20397;-66
2021/08/20 14:02:59;;;;;;;;;;;28.30;77.10;;;;;;5030308;28;19917;-66
2021/08/20 14:05:26;;;;;;;;;;;28.60;78.40;;;;;;5030469;28;19923;-66
2021/08/20 14:07:51;;;;;;;;;;;28.70;77.30;;;;;;5014767;28;19911;-67
2021/08/20 14:10:17;;;;;;;;;;;28.90;76.50;;;;;;5014720;28;20416;-67
2021/08/20 14:12:42;;;;;;;;;;;28.90;76.30;;;;;;5012478;28;20406;-67
2021/08/20 14:15:08;;;;;;;;;;;28.90;75.30;;;;;;5011073;28;19992;-67
2021/08/20 14:17:35;;;;;;;;;;;28.90;76.70;;;;;;5010644;28;19914;-67